createdAt,value
2018-09-02T00:01:07.441Z,63.35
2018-09-02T00:02:17.608Z,63.06
2018-09-02T00:03:27.736Z,62.93
2018-09-02T00:04:37.897Z,63.51
2018-09-02T00:05:48.075Z,63.12
2018-09-02T00:06:58.256Z,63.22
2018-09-02T00:08:08.154Z,63.6
2018-09-02T00:09:18.284Z,63.32
2018-09-02T00:10:28.423Z,63.42
2018-09-02T00:11:38.642Z,63.6
2018-09-02T00:12:48.869Z,64.09
2018-09-02T00:13:59.202Z,63.99
2018-09-02T00:15:09.420Z,64.18
2018-09-02T00:16:19.634Z,64.28
2018-09-02T00:17:29.787Z,64.28
2018-09-02T00:18:40.017Z,64.28
2018-09-02T00:19:50.177Z,64.76
2018-09-02T00:21:00.411Z,64.09
2018-09-02T00:22:10.597Z,64.66
2018-09-02T00:23:21.052Z,64.76
2018-09-02T00:24:31.430Z,64.66
2018-09-02T00:25:41.811Z,64.95
2018-09-02T00:26:52.054Z,64.85
2018-09-02T00:28:02.289Z,64.66
2018-09-02T00:29:12.502Z,64.85
2018-09-02T00:30:22.699Z,65.14
2018-09-02T00:31:32.919Z,64.66
2018-09-02T00:32:42.792Z,65.05
2018-09-02T00:33:53.117Z,65.14
2018-09-02T00:35:03.772Z,65.14
2018-09-02T00:36:13.693Z,65.05
2018-09-02T00:37:23.839Z,65.14
2018-09-02T00:38:34.002Z,65.33
2018-09-02T00:39:44.119Z,64.76
2018-09-02T00:40:54.297Z,65.52
2018-09-02T00:42:04.173Z,65.52
2018-09-02T00:43:14.334Z,65.33
2018-09-02T00:44:24.281Z,65.14
2018-09-02T00:45:34.410Z,65.62
2018-09-02T00:46:44.528Z,65.81
2018-09-02T00:47:54.457Z,65.62
2018-09-02T00:49:04.648Z,65.91
2018-09-02T00:50:14.793Z,65.81
2018-09-02T00:51:24.915Z,65.81
2018-09-02T00:52:34.700Z,66
2018-09-02T00:53:44.844Z,65.72
2018-09-02T00:54:55.054Z,65.72
2018-09-02T00:56:05.226Z,65.43
2018-09-02T00:57:15.417Z,65.62
2018-09-02T00:58:25.762Z,66.19
2018-09-02T00:59:35.910Z,65.52
2018-09-02T01:00:46.058Z,66.19
2018-09-02T01:01:55.925Z,66.19
2018-09-02T01:03:06.061Z,66.1
2018-09-02T01:04:16.191Z,66.29
2018-09-02T01:05:26.430Z,66.29
2018-09-02T01:06:36.692Z,66.19
2018-09-02T01:07:46.819Z,66.42
2018-09-02T01:08:57.072Z,66.58
2018-09-02T01:10:07.385Z,66.29
2018-09-02T01:11:17.488Z,66.29
2018-09-02T01:12:27.607Z,66.19
2018-09-02T01:13:37.740Z,66.29
2018-09-02T01:14:47.609Z,66.1
2018-09-02T01:15:57.763Z,66.29
2018-09-02T01:17:07.916Z,66.29
2018-09-02T01:18:18.810Z,66.19
2018-09-02T01:19:28.919Z,66.49
2018-09-02T01:20:38.941Z,67.16
2018-09-02T01:21:49.166Z,67.06
2018-09-02T01:22:59.446Z,66.86
2018-09-02T01:24:10.297Z,66.86
2018-09-02T01:25:20.065Z,67.06
2018-09-02T01:26:30.236Z,66.86
2018-09-02T01:27:40.361Z,67.06
2018-09-02T01:28:49.993Z,66.86
2018-09-02T01:30:00.195Z,67.44
2018-09-02T01:31:10.320Z,67.54
2018-09-02T01:32:20.579Z,67.44
2018-09-02T01:33:30.379Z,68.02
2018-09-02T01:34:40.710Z,68.12
2018-09-02T01:35:50.837Z,68.5
2018-09-02T01:37:00.975Z,68.3
2018-09-02T01:38:11.354Z,67.92
2018-09-02T01:39:21.586Z,67.92
2018-09-02T01:40:32.745Z,68.3
2018-09-02T01:41:42.932Z,68.79
2018-09-02T01:42:53.145Z,68.79
2018-09-02T01:44:03.040Z,68.98
2018-09-02T01:45:13.115Z,68.79
2018-09-02T01:46:22.881Z,69.07
2018-09-02T01:47:33.006Z,68.98
2018-09-02T01:48:43.253Z,68.79
2018-09-02T01:49:53.440Z,68.98
2018-09-02T01:51:03.073Z,69.46
2018-09-02T01:52:13.260Z,69.07
2018-09-02T01:53:23.389Z,69.07
2018-09-02T01:54:33.512Z,69.07
2018-09-02T01:55:44.004Z,69.23
2018-09-02T01:56:54.263Z,69.52
2018-09-02T01:58:04.469Z,69.33
2018-09-02T01:59:14.709Z,69.9
2018-09-02T02:00:24.943Z,69.9
2018-09-02T02:01:35.119Z,69.81
2018-09-02T02:02:44.983Z,69.71
2018-09-02T02:03:55.171Z,70.38
2018-09-02T02:05:05.376Z,70.29
2018-09-02T02:06:15.252Z,70.38
2018-09-02T02:07:25.598Z,70.67
2018-09-02T02:08:35.756Z,70.38
2018-09-02T02:09:45.888Z,70.29
2018-09-02T02:10:56.009Z,70.38
2018-09-02T02:12:06.249Z,70.67
2018-09-02T02:13:16.138Z,70.48
2018-09-02T02:14:26.263Z,70.76
2018-09-02T02:15:36.417Z,70.86
2018-09-02T02:16:46.535Z,71.05
2018-09-02T02:17:56.672Z,71.05
2018-09-02T02:19:06.889Z,71.44
2018-09-02T02:20:17.098Z,71.15
2018-09-02T02:21:27.212Z,71.34
2018-09-02T02:22:37.338Z,71.25
2018-09-02T02:23:48.465Z,71.25
2018-09-02T02:24:58.642Z,71.25
2018-09-02T02:26:08.787Z,71.15
2018-09-02T02:27:19.096Z,71.02
2018-09-02T02:28:29.232Z,71.44
2018-09-02T02:29:39.334Z,71.11
2018-09-02T02:30:49.501Z,71.44
2018-09-02T02:31:59.636Z,72.11
2018-09-02T02:33:09.835Z,71.44
2018-09-02T02:34:19.725Z,71.72
2018-09-02T02:35:30.068Z,71.63
2018-09-02T02:36:40.179Z,72.01
2018-09-02T02:37:50.307Z,71.82
2018-09-02T02:39:00.453Z,71.92
2018-09-02T02:40:10.637Z,72.11
2018-09-02T02:41:20.512Z,71.72
2018-09-02T02:42:30.372Z,72.39
2018-09-02T02:43:40.520Z,72.2
2018-09-02T02:44:50.451Z,72.39
2018-09-02T02:45:59.996Z,72.11
2018-09-02T02:47:09.877Z,72.01
2018-09-02T02:48:20.141Z,71.92
2018-09-02T02:49:30.361Z,72.2
2018-09-02T02:50:40.644Z,72.2
2018-09-02T02:51:50.835Z,72.2
2018-09-02T02:53:01.011Z,72.2
2018-09-02T02:54:11.171Z,72.78
2018-09-02T02:55:20.800Z,72.59
2018-09-02T02:56:30.816Z,72.68
2018-09-02T02:57:40.991Z,72.59
2018-09-02T02:58:51.206Z,72.39
2018-09-02T03:00:01.367Z,72.49
2018-09-02T03:01:11.577Z,72.78
2018-09-02T03:02:21.698Z,72.68
2018-09-02T03:03:31.641Z,72.68
2018-09-02T03:04:41.858Z,72.59
2018-09-02T03:05:52.254Z,72.59
2018-09-02T03:07:02.391Z,72.59
2018-09-02T03:08:12.526Z,72.49
2018-09-02T03:09:22.698Z,72.78
2018-09-02T03:10:32.909Z,72.97
2018-09-02T03:11:43.263Z,72.68
2018-09-02T03:12:53.444Z,72.68
2018-09-02T03:14:03.588Z,73.16
2018-09-02T03:15:13.887Z,73.26
2018-09-02T03:16:24.071Z,73.35
2018-09-02T03:17:35.262Z,73.35
2018-09-02T03:18:45.532Z,73.16
2018-09-02T03:19:55.402Z,72.97
2018-09-02T03:21:05.546Z,73.16
2018-09-02T03:22:15.672Z,73.35
2018-09-02T03:23:26.000Z,73.26
2018-09-02T03:24:35.860Z,73.16
2018-09-02T03:25:46.008Z,73.26
2018-09-02T03:26:55.980Z,73.74
2018-09-02T03:28:06.136Z,72.97
2018-09-02T03:29:16.299Z,73.65
2018-09-02T03:30:26.405Z,73.16
2018-09-02T03:31:36.536Z,73.26
2018-09-02T03:32:46.408Z,73.65
2018-09-02T03:33:56.575Z,73.55
2018-09-02T03:35:06.733Z,73.45
2018-09-02T03:36:16.849Z,73.16
2018-09-02T03:37:27.102Z,73.26
2018-09-02T03:38:36.983Z,73.26
2018-09-02T03:39:47.173Z,73.45
2018-09-02T03:40:57.048Z,73.74
2018-09-02T03:42:07.191Z,74.12
2018-09-02T03:43:17.372Z,73.83
2018-09-02T03:44:27.482Z,74.22
2018-09-02T03:45:37.672Z,74.22
2018-09-02T03:46:47.896Z,74.6
2018-09-02T03:47:59.117Z,74.51
2018-09-02T03:49:09.301Z,74.6
2018-09-02T03:50:19.573Z,74.69
2018-09-02T03:51:29.255Z,74.69
2018-09-02T03:52:39.398Z,74.6
2018-09-02T03:53:49.640Z,74.69
2018-09-02T03:54:59.842Z,74.66
2018-09-02T03:56:09.404Z,74.89
2018-09-02T03:57:19.553Z,75.18
2018-09-02T03:58:29.881Z,74.89
2018-09-02T03:59:40.019Z,74.89
2018-09-02T04:00:50.190Z,74.79
2018-09-02T04:02:00.332Z,75.04
2018-09-02T04:03:10.540Z,74.85
2018-09-02T04:04:20.680Z,74.66
2018-09-02T04:05:30.967Z,75.04
2018-09-02T04:06:41.193Z,75.33
2018-09-02T04:07:51.351Z,75.33
2018-09-02T04:09:01.560Z,75.52
2018-09-02T04:10:11.710Z,75.43
2018-09-02T04:11:21.760Z,75.81
2018-09-02T04:12:32.420Z,75.9
2018-09-02T04:13:42.817Z,75.81
2018-09-02T04:14:52.790Z,76
2018-09-02T04:16:02.941Z,75.9
2018-09-02T04:17:13.210Z,75.9
2018-09-02T04:18:23.409Z,75.81
2018-09-02T04:19:33.575Z,75.81
2018-09-02T04:20:44.661Z,76
2018-09-02T04:21:54.790Z,76.48
2018-09-02T04:23:04.960Z,76.1
2018-09-02T04:24:15.082Z,76.39
2018-09-02T04:25:25.235Z,76.19
2018-09-02T04:26:35.401Z,76.19
2018-09-02T04:27:45.287Z,76.39
2018-09-02T04:28:55.474Z,76.29
2018-09-02T04:30:05.605Z,76.42
2018-09-02T04:31:15.776Z,76.57
2018-09-02T04:32:25.944Z,76.67
2018-09-02T04:33:36.166Z,76.39
2018-09-02T04:34:46.848Z,76.29
2018-09-02T04:35:57.028Z,76.57
2018-09-02T04:37:07.264Z,77.06
2018-09-02T04:38:17.169Z,76.67
2018-09-02T04:39:27.152Z,76.62
2018-09-02T04:40:37.018Z,76.81
2018-09-02T04:41:47.342Z,76.71
2018-09-02T04:42:57.519Z,76.9
2018-09-02T04:44:07.848Z,76.81
2018-09-02T04:45:18.335Z,77.09
2018-09-02T04:46:28.587Z,77.09
2018-09-02T04:47:38.732Z,76.81
2018-09-02T04:48:48.647Z,77.48
2018-09-02T04:49:58.780Z,77.29
2018-09-02T04:51:09.041Z,77.48
2018-09-02T04:52:19.286Z,77.38
2018-09-02T04:53:29.511Z,77.38
2018-09-02T04:54:39.668Z,77.48
2018-09-02T04:55:50.022Z,77.58
2018-09-02T04:57:00.314Z,77.82
2018-09-02T04:58:10.735Z,77.92
2018-09-02T04:59:20.873Z,77.76
2018-09-02T05:00:31.233Z,77.63
2018-09-02T05:01:41.587Z,77.82
2018-09-02T05:02:51.809Z,77.67
2018-09-02T05:04:02.174Z,78.4
2018-09-02T05:05:12.292Z,77.82
2018-09-02T05:06:22.436Z,78.25
2018-09-02T05:07:33.711Z,78.15
2018-09-02T05:08:43.859Z,78.59
2018-09-02T05:09:54.025Z,78.25
2018-09-02T05:11:04.151Z,78.15
2018-09-02T05:12:14.313Z,78.02
2018-09-02T05:13:24.451Z,78.11
2018-09-02T05:14:34.598Z,77.67
2018-09-02T05:15:44.749Z,77.63
2018-09-02T05:16:54.976Z,77.76
2018-09-02T05:18:05.126Z,77.86
2018-09-02T05:19:15.280Z,77.76
2018-09-02T05:20:25.601Z,77.53
2018-09-02T05:21:35.748Z,77.53
2018-09-02T05:22:45.876Z,77.34
2018-09-02T05:23:57.207Z,77.53
2018-09-02T05:25:07.369Z,77.73
2018-09-02T05:26:17.786Z,77.82
2018-09-02T05:27:28.019Z,77.63
2018-09-02T05:28:38.144Z,78.11
2018-09-02T05:29:48.476Z,78.69
2018-09-02T05:30:58.679Z,78.3
2018-09-02T05:32:08.952Z,78.2
2018-09-02T05:33:19.100Z,78.4
2018-09-02T05:34:29.225Z,78.3
2018-09-02T05:35:39.485Z,78.11
2018-09-02T05:36:49.753Z,78.3
2018-09-02T05:38:00.023Z,78.4
2018-09-02T05:39:10.322Z,78.3
2018-09-02T05:40:20.503Z,78.59
2018-09-02T05:41:30.703Z,78.02
2018-09-02T05:42:40.848Z,78.3
2018-09-02T05:43:50.516Z,78.02
2018-09-02T05:45:00.936Z,78.49
2018-09-02T05:46:10.867Z,78.4
2018-09-02T05:47:20.998Z,78.59
2018-09-02T05:48:31.118Z,78.3
2018-09-02T05:49:41.270Z,78.11
2018-09-02T05:50:51.406Z,78.2
2018-09-02T05:52:01.573Z,78.59
2018-09-02T05:53:11.904Z,78.2
2018-09-02T05:54:22.059Z,78.3
2018-09-02T05:55:31.973Z,78.2
2018-09-02T05:56:41.891Z,78.59
2018-09-02T05:57:52.015Z,78.49
2018-09-02T05:59:02.161Z,78.49
2018-09-02T06:00:12.313Z,78.59
2018-09-02T06:01:22.181Z,78.15
2018-09-02T06:02:32.322Z,78.25
2018-09-02T06:03:41.990Z,78.05
2018-09-02T06:04:52.160Z,77.86
2018-09-02T06:06:02.425Z,78.34
2018-09-02T06:07:12.622Z,77.58
2018-09-02T06:08:22.860Z,77.76
2018-09-02T06:09:33.019Z,77.76
2018-09-02T06:10:43.240Z,77.86
2018-09-02T06:11:53.403Z,77.67
2018-09-02T06:13:03.652Z,77.67
2018-09-02T06:14:13.843Z,77.67
2018-09-02T06:15:23.994Z,77.76
2018-09-02T06:16:34.166Z,77.76
2018-09-02T06:17:44.093Z,77.48
2018-09-02T06:18:54.258Z,77.67
2018-09-02T06:20:04.399Z,77.58
2018-09-02T06:21:14.402Z,77.33
2018-09-02T06:22:24.592Z,77.61
2018-09-02T06:23:34.498Z,77.13
2018-09-02T06:24:44.643Z,77.13
2018-09-02T06:25:54.544Z,77.51
2018-09-02T06:27:04.737Z,77.61
2018-09-02T06:28:14.640Z,76.94
2018-09-02T06:29:24.858Z,77.13
2018-09-02T06:30:35.001Z,76.88
2018-09-02T06:31:45.250Z,76.59
2018-09-02T06:32:54.946Z,76.69
2018-09-02T06:34:05.422Z,76.4
2018-09-02T06:35:15.282Z,76.31
2018-09-02T06:36:25.486Z,76.4
2018-09-02T06:37:35.637Z,76.5
2018-09-02T06:38:45.765Z,76.34
2018-09-02T06:39:55.936Z,76.12
2018-09-02T06:41:05.814Z,76.06
2018-09-02T06:42:15.992Z,75.96
2018-09-02T06:43:26.163Z,75.48
2018-09-02T06:44:36.328Z,75.57
2018-09-02T06:45:46.663Z,75.1
2018-09-02T06:46:57.214Z,74.71
2018-09-02T06:48:07.452Z,74.55
2018-09-02T06:49:17.362Z,74.75
2018-09-02T06:50:27.564Z,74.94
2018-09-02T06:51:37.746Z,74.55
2018-09-02T06:52:47.879Z,74.65
2018-09-02T06:53:58.049Z,74.37
2018-09-02T06:55:08.213Z,74.55
2018-09-02T06:56:18.355Z,74.65
2018-09-02T06:57:28.531Z,74.37
2018-09-02T06:58:38.734Z,74.27
2018-09-02T06:59:49.524Z,74.37
2018-09-02T07:00:59.719Z,74.37
2018-09-02T07:02:09.871Z,74.27
2018-09-02T07:03:20.012Z,73.88
2018-09-02T07:04:30.151Z,73.88
2018-09-02T07:05:40.294Z,73.79
2018-09-02T07:06:50.434Z,73.35
2018-09-02T07:08:00.624Z,73.31
2018-09-02T07:09:10.870Z,73.25
2018-09-02T07:10:21.120Z,73.79
2018-09-02T07:11:31.340Z,73.63
2018-09-02T07:12:41.554Z,73.73
2018-09-02T07:13:51.801Z,73.35
2018-09-02T07:15:02.115Z,73.35
2018-09-02T07:16:11.676Z,73.25
2018-09-02T07:17:21.979Z,73.35
2018-09-02T07:18:32.214Z,72.67
2018-09-02T07:19:42.143Z,72.96
2018-09-02T07:20:52.497Z,73.06
2018-09-02T07:22:02.646Z,72.77
2018-09-02T07:23:12.766Z,73.25
2018-09-02T07:24:22.908Z,72.77
2018-09-02T07:25:33.079Z,72.77
2018-09-02T07:26:43.448Z,72.77
2018-09-02T07:27:53.586Z,72.86
2018-09-02T07:29:03.790Z,72.86
2018-09-02T07:30:13.958Z,72.67
2018-09-02T07:31:24.289Z,72.67
2018-09-02T07:32:34.846Z,72.77
2018-09-02T07:33:45.334Z,72.86
2018-09-02T07:34:54.963Z,72.29
2018-09-02T07:36:05.352Z,72.48
2018-09-02T07:37:15.549Z,72.38
2018-09-02T07:38:25.667Z,72.48
2018-09-02T07:39:35.867Z,72.19
2018-09-02T07:40:45.672Z,72.86
2018-09-02T07:41:55.565Z,72.96
2018-09-02T07:43:05.738Z,72.58
2018-09-02T07:44:16.030Z,72
2018-09-02T07:45:26.404Z,72.29
2018-09-02T07:46:36.645Z,72.48
2018-09-02T07:47:46.534Z,72.13
2018-09-02T07:48:56.692Z,72.13
2018-09-02T07:50:06.961Z,71.94
2018-09-02T07:51:17.104Z,72.13
2018-09-02T07:52:26.974Z,71.81
2018-09-02T07:53:37.134Z,71.91
2018-09-02T07:54:47.286Z,71.75
2018-09-02T07:55:57.488Z,72.03
2018-09-02T07:57:07.623Z,72.13
2018-09-02T07:58:17.431Z,71.55
2018-09-02T07:59:27.589Z,71.36
2018-09-02T08:00:37.804Z,71.36
2018-09-02T08:01:47.981Z,71.55
2018-09-02T08:02:57.867Z,71.4
2018-09-02T08:04:08.192Z,70.72
2018-09-02T08:05:18.354Z,70.62
2018-09-02T08:06:28.541Z,70.53
2018-09-02T08:07:38.550Z,70.18
2018-09-02T08:08:48.551Z,70.28
2018-09-02T08:09:58.774Z,69.7
2018-09-02T08:11:08.925Z,69.6
2018-09-02T08:12:19.202Z,69.6
2018-09-02T08:13:29.777Z,69.51
2018-09-02T08:14:40.199Z,69.51
2018-09-02T08:15:50.413Z,69.22
2018-09-02T08:17:00.558Z,69.02
2018-09-02T08:18:10.354Z,68.58
2018-09-02T08:19:20.378Z,68.48
2018-09-02T08:20:30.635Z,68.87
2018-09-02T08:21:40.803Z,68.77
2018-09-02T08:22:51.169Z,68.96
2018-09-02T08:24:01.340Z,68.1
2018-09-02T08:25:11.543Z,68.38
2018-09-02T08:26:21.691Z,68.29
2018-09-02T08:27:32.336Z,68.29
2018-09-02T08:28:42.325Z,68.29
2018-09-02T08:29:52.249Z,68.29
2018-09-02T08:31:02.238Z,68.58
2018-09-02T08:32:12.453Z,68.1
2018-09-02T08:33:22.679Z,68.38
2018-09-02T08:34:32.826Z,68.19
2018-09-02T08:35:43.046Z,68.38
2018-09-02T08:36:53.264Z,68
2018-09-02T08:38:03.460Z,68.1
2018-09-02T08:39:13.869Z,68.16
2018-09-02T08:40:24.654Z,68.16
2018-09-02T08:41:34.835Z,67.97
2018-09-02T08:42:44.710Z,68.16
2018-09-02T08:43:54.877Z,67.97
2018-09-02T08:45:05.286Z,67.97
2018-09-02T08:46:15.474Z,67.68
2018-09-02T08:47:25.724Z,67.77
2018-09-02T08:48:35.950Z,67.77
2018-09-02T08:49:46.180Z,67.68
2018-09-02T08:50:56.343Z,67.71
2018-09-02T08:52:06.698Z,67.71
2018-09-02T08:53:16.921Z,67.71
2018-09-02T08:54:27.065Z,67.81
2018-09-02T08:55:37.220Z,68
2018-09-02T08:56:47.417Z,67.81
2018-09-02T08:57:57.843Z,67.42
2018-09-02T08:59:08.022Z,66.85
2018-09-02T09:00:18.183Z,67.13
2018-09-02T09:01:28.392Z,66.85
2018-09-02T09:02:38.855Z,67.52
2018-09-02T09:03:48.999Z,67.52
2018-09-02T09:04:58.931Z,67.71
2018-09-02T09:06:08.873Z,68
2018-09-02T09:07:19.158Z,67.9
2018-09-02T09:08:30.332Z,67.71
2018-09-02T09:09:41.763Z,67.71
2018-09-02T09:10:52.192Z,67.97
2018-09-02T09:12:02.116Z,68.44
2018-09-02T09:13:12.335Z,68.06
2018-09-02T09:14:22.489Z,68.44
2018-09-02T09:15:32.694Z,68.64
2018-09-02T09:16:43.299Z,68.74
2018-09-02T09:17:54.203Z,68.74
2018-09-02T09:19:05.399Z,68.35
2018-09-02T09:20:15.579Z,68.93
2018-09-02T09:21:25.819Z,68.35
2018-09-02T09:22:36.539Z,68.93
2018-09-02T09:23:47.114Z,68.84
2018-09-02T09:24:57.424Z,68.35
2018-09-02T09:26:07.677Z,68.44
2018-09-02T09:27:17.827Z,68.44
2018-09-02T09:28:28.039Z,68.44
2018-09-02T09:29:38.246Z,68.84
2018-09-02T09:30:48.256Z,68.54
2018-09-02T09:31:58.720Z,68.84
2018-09-02T09:33:08.936Z,68.74
2018-09-02T09:34:19.136Z,68.54
2018-09-02T09:35:29.503Z,68.35
2018-09-02T09:36:39.694Z,68.84
2018-09-02T09:37:49.887Z,68.93
2018-09-02T09:38:59.790Z,68.74
2018-09-02T09:40:09.946Z,68.84
2018-09-02T09:41:20.123Z,68.54
2018-09-02T09:42:30.022Z,68.06
2018-09-02T09:43:40.307Z,68.54
2018-09-02T09:44:50.454Z,68.84
2018-09-02T09:46:00.740Z,68.35
2018-09-02T09:47:11.177Z,68.26
2018-09-02T09:48:21.114Z,68.35
2018-09-02T09:49:31.482Z,68.54
2018-09-02T09:50:41.658Z,68.44
2018-09-02T09:51:52.548Z,68.06
2018-09-02T09:53:02.731Z,68
2018-09-02T09:54:12.738Z,68.26
2018-09-02T09:55:23.059Z,68.29
2018-09-02T09:56:33.483Z,67.71
2018-09-02T09:57:43.683Z,67.68
2018-09-02T09:58:54.147Z,67.97
2018-09-02T10:00:04.467Z,68.16
2018-09-02T10:01:14.654Z,68.26
2018-09-02T10:02:24.814Z,68.44
2018-09-02T10:03:35.017Z,68.35
2018-09-02T10:04:45.403Z,68.35
2018-09-02T10:05:55.575Z,68.54
2018-09-02T10:07:05.491Z,68.64
2018-09-02T10:08:15.683Z,68.54
2018-09-02T10:09:26.062Z,68.35
2018-09-02T10:10:36.525Z,68.06
2018-09-02T10:11:46.867Z,68.06
2018-09-02T10:12:57.571Z,68.26
2018-09-02T10:14:07.755Z,68.44
2018-09-02T10:15:17.960Z,68.7
2018-09-02T10:16:28.096Z,68.51
2018-09-02T10:17:38.299Z,68.32
2018-09-02T10:18:48.495Z,68.7
2018-09-02T10:19:58.653Z,68.9
2018-09-02T10:21:08.904Z,68.22
2018-09-02T10:22:19.176Z,68.6
2018-09-02T10:23:29.380Z,68.9
2018-09-02T10:24:39.520Z,68.99
2018-09-02T10:25:49.644Z,68.99
2018-09-02T10:26:59.628Z,68.99
2018-09-02T10:28:09.773Z,69.57
2018-09-02T10:29:19.955Z,68.99
2018-09-02T10:30:30.181Z,69.47
2018-09-02T10:31:39.830Z,69.38
2018-09-02T10:32:50.101Z,69.47
2018-09-02T10:34:00.295Z,69.38
2018-09-02T10:35:10.613Z,69.38
2018-09-02T10:36:20.876Z,69.47
2018-09-02T10:37:31.083Z,69.57
2018-09-02T10:38:41.307Z,69.47
2018-09-02T10:39:51.548Z,69.95
2018-09-02T10:41:01.940Z,69.85
2018-09-02T10:42:12.953Z,69.95
2018-09-02T10:43:23.191Z,69.95
2018-09-02T10:44:34.382Z,70.05
2018-09-02T10:45:44.594Z,70.34
2018-09-02T10:46:54.826Z,70.53
2018-09-02T10:48:04.990Z,70.92
2018-09-02T10:49:15.259Z,70.92
2018-09-02T10:50:25.457Z,71.4
2018-09-02T10:51:35.656Z,71.4
2018-09-02T10:52:45.878Z,70.72
2018-09-02T10:53:56.115Z,71.2
2018-09-02T10:55:06.329Z,71.59
2018-09-02T10:56:16.505Z,71.59
2018-09-02T10:57:26.694Z,71.49
2018-09-02T10:58:36.947Z,71.59
2018-09-02T10:59:47.423Z,72.13
2018-09-02T11:00:57.667Z,71.84
2018-09-02T11:02:08.815Z,72.32
2018-09-02T11:03:18.880Z,72.52
2018-09-02T11:04:29.080Z,72.8
2018-09-02T11:05:39.329Z,72.8
2018-09-02T11:06:49.555Z,72.71
2018-09-02T11:07:59.738Z,73.19
2018-09-02T11:09:09.971Z,72.9
2018-09-02T11:10:19.771Z,73
2018-09-02T11:11:29.992Z,73.09
2018-09-02T11:12:40.266Z,73.47
2018-09-02T11:13:50.838Z,73.38
2018-09-02T11:15:02.188Z,73.86
2018-09-02T11:16:12.607Z,73.96
2018-09-02T11:17:22.843Z,73.8
2018-09-02T11:18:33.043Z,73.99
2018-09-02T11:19:43.261Z,73.8
2018-09-02T11:20:53.441Z,74.19
2018-09-02T11:22:03.686Z,74.57
2018-09-02T11:23:13.891Z,74.67
2018-09-02T11:24:24.197Z,74.76
2018-09-02T11:25:35.069Z,74.96
2018-09-02T11:26:45.299Z,74.67
2018-09-02T11:27:55.476Z,74.92
2018-09-02T11:29:05.381Z,75.15
2018-09-02T11:30:15.560Z,75.15
2018-09-02T11:31:26.540Z,74.96
2018-09-02T11:32:36.922Z,75.21
2018-09-02T11:33:47.310Z,75.49
2018-09-02T11:34:57.840Z,75.88
2018-09-02T11:36:08.078Z,76.17
2018-09-02T11:37:18.278Z,76.46
2018-09-02T11:38:28.493Z,76.56
2018-09-02T11:39:38.666Z,76.56
2018-09-02T11:40:48.896Z,76.94
2018-09-02T11:41:59.152Z,77.04
2018-09-02T11:43:09.458Z,78.09
2018-09-02T11:44:19.626Z,77.9
2018-09-02T11:45:29.805Z,78.92
2018-09-02T11:46:40.287Z,78.73
2018-09-02T11:47:50.751Z,78.73
2018-09-02T11:49:00.996Z,79.21
2018-09-02T11:50:11.634Z,79.21
2018-09-02T11:51:22.042Z,79.3
2018-09-02T11:52:32.222Z,80.07
2018-09-02T11:53:42.459Z,79.79
2018-09-02T11:54:52.692Z,80.07
2018-09-02T11:56:02.877Z,80.27
2018-09-02T11:57:13.066Z,80.46
2018-09-02T11:58:23.516Z,80.65
2018-09-02T11:59:33.781Z,81.04
2018-09-02T12:00:44.096Z,81.23
2018-09-02T12:01:54.349Z,81.42
2018-09-02T12:03:04.589Z,81.61
2018-09-02T12:04:14.798Z,81.52
2018-09-02T12:05:25.007Z,81.52
2018-09-02T12:06:34.973Z,81.42
2018-09-02T12:07:45.191Z,82.09
2018-09-02T12:08:55.041Z,81.9
2018-09-02T12:10:04.989Z,82.09
2018-09-02T12:11:15.176Z,81.23
2018-09-02T12:12:25.391Z,81.99
2018-09-02T12:13:35.649Z,81.81
2018-09-02T12:14:45.622Z,82.19
2018-09-02T12:15:55.964Z,81.9
2018-09-02T12:17:06.200Z,82.09
2018-09-02T12:18:16.404Z,82.29
2018-09-02T12:19:26.724Z,82.48
2018-09-02T12:20:36.846Z,83.06
2018-09-02T12:21:46.748Z,83.06
2018-09-02T12:22:56.940Z,82.96
2018-09-02T12:24:07.119Z,83.06
2018-09-02T12:25:17.073Z,83.44
2018-09-02T12:26:27.317Z,83.34
2018-09-02T12:27:37.552Z,83.06
2018-09-02T12:28:47.799Z,83.15
2018-09-02T12:29:58.201Z,83.44
2018-09-02T12:31:09.440Z,83.15
2018-09-02T12:32:19.697Z,83.15
2018-09-02T12:33:29.945Z,82.96
2018-09-02T12:34:40.352Z,82.96
2018-09-02T12:35:50.609Z,83.25
2018-09-02T12:37:00.855Z,82.96
2018-09-02T12:38:11.145Z,83.09
2018-09-02T12:39:21.327Z,82.96
2018-09-02T12:40:31.734Z,82.86
2018-09-02T12:41:41.976Z,83.19
2018-09-02T12:42:52.132Z,83.34
2018-09-02T12:44:02.319Z,82.86
2018-09-02T12:45:12.516Z,83.15
2018-09-02T12:46:22.703Z,82.96
2018-09-02T12:47:32.979Z,82.48
2018-09-02T12:48:43.470Z,82.42
2018-09-02T12:49:53.698Z,82.23
2018-09-02T12:51:03.665Z,82.23
2018-09-02T12:52:13.660Z,82.32
2018-09-02T12:53:24.834Z,82.32
2018-09-02T12:54:35.080Z,82.04
2018-09-02T12:55:45.399Z,82.42
2018-09-02T12:56:55.966Z,81.94
2018-09-02T12:58:06.183Z,81.65
2018-09-02T12:59:16.395Z,81.94
2018-09-02T13:00:26.708Z,81.65
2018-09-02T13:01:37.000Z,81.56
2018-09-02T13:02:46.953Z,81.37
2018-09-02T13:03:57.243Z,81.46
2018-09-02T13:05:07.872Z,81.37
2018-09-02T13:06:18.079Z,81.27
2018-09-02T13:07:28.102Z,80.88
2018-09-02T13:08:38.287Z,81.02
2018-09-02T13:09:48.629Z,80.73
2018-09-02T13:10:58.949Z,80.5
2018-09-02T13:12:09.148Z,80.15
2018-09-02T13:13:19.401Z,79.96
2018-09-02T13:14:29.679Z,80.06
2018-09-02T13:15:39.924Z,80.15
2018-09-02T13:16:50.382Z,80.25
2018-09-02T13:18:00.712Z,80.35
2018-09-02T13:19:11.182Z,79.77
2018-09-02T13:20:21.349Z,79.19
2018-09-02T13:21:31.582Z,79.58
2018-09-02T13:22:41.808Z,79.77
2018-09-02T13:23:52.303Z,79.28
2018-09-02T13:25:02.983Z,78.86
2018-09-02T13:26:13.181Z,78.96
2018-09-02T13:27:23.681Z,79.28
2018-09-02T13:28:33.858Z,78.86
2018-09-02T13:29:44.071Z,78.96
2018-09-02T13:30:54.261Z,79.28
2018-09-02T13:32:04.440Z,79.1
2018-09-02T13:33:14.675Z,78.48
2018-09-02T13:34:24.917Z,78.58
2018-09-02T13:35:35.105Z,78.58
2018-09-02T13:36:45.332Z,77.9
2018-09-02T13:37:55.502Z,77.9
2018-09-02T13:39:05.436Z,77.9
2018-09-02T13:40:15.675Z,77.9
2018-09-02T13:41:26.260Z,78
2018-09-02T13:42:36.315Z,77.9
2018-09-02T13:43:46.545Z,77.9
2018-09-02T13:44:56.855Z,78.48
2018-09-02T13:46:07.197Z,77.81
2018-09-02T13:47:17.398Z,78
2018-09-02T13:48:27.442Z,78
2018-09-02T13:49:38.121Z,78.09
2018-09-02T13:50:48.379Z,77.71
2018-09-02T13:51:58.809Z,77.81
2018-09-02T13:53:09.035Z,77.81
2018-09-02T13:54:19.148Z,77.9
2018-09-02T13:55:29.986Z,77.33
2018-09-02T13:56:40.159Z,77.23
2018-09-02T13:57:50.411Z,77.04
2018-09-02T13:59:00.494Z,77.04
2018-09-02T14:00:10.814Z,77.13
2018-09-02T14:01:21.019Z,77.13
2018-09-02T14:02:31.097Z,77.23
2018-09-02T14:03:41.069Z,77.13
2018-09-02T14:04:51.247Z,76.75
2018-09-02T14:06:01.438Z,76.65
2018-09-02T14:07:11.680Z,76.46
2018-09-02T14:08:22.095Z,77.13
2018-09-02T14:09:32.057Z,77.13
2018-09-02T14:10:42.150Z,76.75
2018-09-02T14:11:52.217Z,76.69
2018-09-02T14:13:02.126Z,76.78
2018-09-02T14:14:12.109Z,76.59
2018-09-02T14:15:22.331Z,76.69
2018-09-02T14:16:32.391Z,76.78
2018-09-02T14:17:42.543Z,76.5
2018-09-02T14:18:53.176Z,76.4
2018-09-02T14:20:03.481Z,76.69
2018-09-02T14:21:14.244Z,76.59
2018-09-02T14:22:24.481Z,76.88
2018-09-02T14:23:34.670Z,76.01
2018-09-02T14:24:45.319Z,75.92
2018-09-02T14:25:55.525Z,76.21
2018-09-02T14:27:05.706Z,76.21
2018-09-02T14:28:15.985Z,76.11
2018-09-02T14:29:26.505Z,76.11
2018-09-02T14:30:36.426Z,76.21
2018-09-02T14:31:46.714Z,75.82
2018-09-02T14:32:56.944Z,75.63
2018-09-02T14:34:06.841Z,75.34
2018-09-02T14:35:17.060Z,75.24
2018-09-02T14:36:27.290Z,75.63
2018-09-02T14:37:37.713Z,75.82
2018-09-02T14:38:47.978Z,75.15
2018-09-02T14:39:58.228Z,75.15
2018-09-02T14:41:08.399Z,75.15
2018-09-02T14:42:18.338Z,75.24
2018-09-02T14:43:28.595Z,75.63
2018-09-02T14:44:38.729Z,75.54
2018-09-02T14:45:48.905Z,75.73
2018-09-02T14:46:59.109Z,75.34
2018-09-02T14:48:10.368Z,75.15
2018-09-02T14:49:20.632Z,75.24
2018-09-02T14:50:30.838Z,75.24
2018-09-02T14:51:41.289Z,75.15
2018-09-02T14:52:51.538Z,74.96
2018-09-02T14:54:01.805Z,75.15
2018-09-02T14:55:12.048Z,75.24
2018-09-02T14:56:22.262Z,75.15
2018-09-02T14:57:32.499Z,75.15
2018-09-02T14:58:42.751Z,74.96
2018-09-02T14:59:53.006Z,75.44
2018-09-02T15:01:03.374Z,75.34
2018-09-02T15:02:14.511Z,75.34
2018-09-02T15:03:25.423Z,75.15
2018-09-02T15:04:36.405Z,75.15
2018-09-02T15:05:46.857Z,75.15
2018-09-02T15:06:57.255Z,75.44
2018-09-02T15:08:07.584Z,75.15
2018-09-02T15:09:17.824Z,74.96